TimeMST,TemperatureF,Dew PointF,Humidity,Sea Level PressureIn,VisibilityMPH,Wind Direction,Wind SpeedMPH,Gust SpeedMPH,PrecipitationIn,Events,Conditions,WindDirDegrees,DateUTC
12:54 AM,44.1,12.9,28,30.06,10.0,NE,8.1,-,N/A,,Clear,50,2012-11-13 07:54:00
1:54 AM,41.0,14.0,33,30.06,10.0,East,6.9,-,N/A,,Clear,90,2012-11-13 08:54:00
2:54 AM,39.9,12.9,33,30.07,10.0,NE,6.9,-,N/A,,Clear,40,2012-11-13 09:54:00
3:54 AM,43.0,12.9,30,30.06,10.0,Variable,3.5,-,N/A,,Clear,0,2012-11-13 10:54:00
4:54 AM,39.2,14.0,36,30.16,10.0,South,4.6,-,N/A,,Clear,170,2012-11-13 11:54:00
5:54 AM,35.1,14.0,42,30.09,10.0,Calm,Calm,-,N/A,,Clear,0,2012-11-13 12:54:00
6:54 AM,37.0,12.9,37,30.11,10.0,Variable,3.5,-,N/A,,Clear,0,2012-11-13 13:54:00
7:54 AM,39.0,15.1,38,30.12,10.0,SSE,3.5,-,N/A,,Clear,150,2012-11-13 14:54:00
8:54 AM,48.9,15.1,26,30.10,10.0,Calm,Calm,-,N/A,,Clear,0,2012-11-13 15:54:00
9:54 AM,57.9,10.0,15,30.08,10.0,Calm,Calm,-,N/A,,Clear,0,2012-11-13 16:54:00
10:54 AM,64.0,10.0,12,30.06,10.0,SW,3.5,-,N/A,,Clear,220,2012-11-13 17:54:00
11:54 AM,70.0,10.0,10,30.02,10.0,SW,5.8,-,N/A,,Clear,230,2012-11-13 18:54:00
12:54 PM,72.0,8.1,8,29.99,10.0,SSW,5.8,-,N/A,,Clear,210,2012-11-13 19:54:00
1:54 PM,75.0,8.1,8,29.97,10.0,Calm,Calm,-,N/A,,Clear,0,2012-11-13 20:54:00
2:54 PM,75.9,8.1,7,29.96,10.0,Variable,3.5,-,N/A,,Clear,0,2012-11-13 21:54:00
3:54 PM,77.0,3.9,6,29.94,10.0,Calm,Calm,-,N/A,,Clear,0,2012-11-13 22:54:00
4:54 PM,73.9,8.1,8,29.97,10.0,North,8.1,-,N/A,,Clear,360,2012-11-13 23:54:00
5:54 PM,63.0,7.0,11,30.01,10.0,NE,9.2,-,N/A,,Clear,40,2012-11-14 00:54:00
6:54 PM,60.1,6.1,12,30.04,10.0,NNE,6.9,-,N/A,,Clear,30,2012-11-14 01:54:00
7:54 PM,59.0,10.0,14,30.07,10.0,ENE,3.5,-,N/A,,Clear,70,2012-11-14 02:54:00
8:54 PM,48.0,10.0,22,30.09,10.0,NE,6.9,-,N/A,,Clear,50,2012-11-14 03:54:00
9:54 PM,46.0,10.0,23,30.08,10.0,NE,5.8,-,N/A,,Clear,50,2012-11-14 04:54:00
10:54 PM,44.1,10.9,26,30.06,10.0,East,4.6,-,N/A,,Clear,80,2012-11-14 05:54:00
11:54 PM,44.1,10.9,26,30.05,10.0,East,5.8,-,N/A,,Clear,80,2012-11-14 06:54:00